createdAt,value
2022-08-05T00:01:48.646Z,19.20
2022-08-05T00:04:18.479Z,19.20
2022-08-05T00:06:47.537Z,19.10
2022-08-05T00:09:20.828Z,19.20
2022-08-05T00:11:55.672Z,19.30
2022-08-05T00:14:27.728Z,19.30
2022-08-05T00:17:03.072Z,19.30
2022-08-05T00:19:33.595Z,19.30
2022-08-05T00:22:11.227Z,19.20
2022-08-05T00:24:42.446Z,19.10
2022-08-05T00:27:14.004Z,19.20
2022-08-05T00:29:45.767Z,19.10
2022-08-05T00:32:15.884Z,19.10
2022-08-05T00:35:04.686Z,19.00
2022-08-05T00:37:50.682Z,19.10
2022-08-05T00:40:26.639Z,19.10
2022-08-05T00:42:59.135Z,19.10
2022-08-05T00:45:37.999Z,19.10
2022-08-05T00:48:15.801Z,19.10
2022-08-05T00:50:47.387Z,19.20
2022-08-05T00:54:00.765Z,19.20
2022-08-05T00:56:07.735Z,19.20
2022-08-05T00:58:37.061Z,19.20
2022-08-05T01:01:08.635Z,19.20
2022-08-05T01:03:39.320Z,19.10
2022-08-05T01:06:11.297Z,19.20
2022-08-05T01:08:47.142Z,19.10
2022-08-05T01:11:21.811Z,19.10
2022-08-05T01:14:04.138Z,19.10
2022-08-05T01:16:45.374Z,19.10
2022-08-05T01:19:36.706Z,19.10
2022-08-05T01:22:41.499Z,19.10
2022-08-05T01:25:40.407Z,19.10
2022-08-05T01:28:21.366Z,19.10
2022-08-05T01:30:55.364Z,19.20
2022-08-05T01:33:35.352Z,19.20
2022-08-05T01:36:13.112Z,19.10
2022-08-05T01:38:49.767Z,19.10
2022-08-05T01:41:25.714Z,19.10
2022-08-05T01:43:57.251Z,19.10
2022-08-05T01:46:44.638Z,19.10
2022-08-05T01:49:23.777Z,19.10
2022-08-05T01:51:58.737Z,19.10
2022-08-05T01:54:33.584Z,19.10
2022-08-05T01:58:11.256Z,19.10
2022-08-05T01:59:58.088Z,19.10
2022-08-05T02:02:30.296Z,19.10
2022-08-05T02:05:03.215Z,19.10
2022-08-05T02:07:33.660Z,19.10
2022-08-05T02:10:04.026Z,19.10
2022-08-05T02:12:38.930Z,19.20
2022-08-05T02:15:15.582Z,19.20
2022-08-05T02:18:28.045Z,19.30
2022-08-05T02:20:49.337Z,19.30
2022-08-05T02:23:22.570Z,19.10
2022-08-05T02:25:53.554Z,19.00
2022-08-05T02:28:28.929Z,18.90
2022-08-05T02:31:04.913Z,18.90
2022-08-05T02:33:42.127Z,18.80
2022-08-05T02:36:16.147Z,18.80
2022-08-05T02:38:53.553Z,18.80
2022-08-05T02:41:28.590Z,18.80
2022-08-05T02:44:13.266Z,18.70
2022-08-05T02:46:53.376Z,18.80
2022-08-05T02:49:35.540Z,18.70
2022-08-05T02:52:09.602Z,18.70
2022-08-05T02:54:42.758Z,18.60
2022-08-05T02:58:09.759Z,18.60
2022-08-05T03:00:15.039Z,18.50
2022-08-05T03:02:48.705Z,18.50
2022-08-05T03:05:21.877Z,18.40
2022-08-05T03:08:08.857Z,18.30
2022-08-05T03:10:38.187Z,18.30
2022-08-05T03:13:16.711Z,18.30
2022-08-05T03:15:46.221Z,18.30
2022-08-05T03:18:17.289Z,18.30
2022-08-05T03:20:48.883Z,18.20
2022-08-05T03:23:19.063Z,18.20
2022-08-05T03:26:30.072Z,18.20
2022-08-05T03:28:41.669Z,18.20
2022-08-05T03:31:11.412Z,18.20
2022-08-05T03:34:01.914Z,18.20
2022-08-05T03:36:39.042Z,18.10
2022-08-05T03:39:12.917Z,18.10
2022-08-05T03:41:46.651Z,18.20
2022-08-05T03:44:19.657Z,18.10
2022-08-05T03:46:48.549Z,18.20
2022-08-05T03:49:18.644Z,18.20
2022-08-05T03:52:38.562Z,18.10
2022-08-05T03:55:06.751Z,18.10
2022-08-05T03:57:43.032Z,18.20
2022-08-05T04:00:16.410Z,18.20
2022-08-05T04:02:58.172Z,18.20
2022-08-05T04:05:34.939Z,18.20
2022-08-05T04:08:05.742Z,18.20
2022-08-05T04:10:54.148Z,18.30
2022-08-05T04:13:24.351Z,18.20
2022-08-05T04:16:04.225Z,18.30
2022-08-05T04:18:34.438Z,18.30
2022-08-05T04:21:07.577Z,18.30
2022-08-05T04:23:57.389Z,18.30
2022-08-05T04:26:32.314Z,18.30
2022-08-05T04:29:07.235Z,18.30
2022-08-05T04:31:38.563Z,18.40
2022-08-05T04:34:31.846Z,18.40
2022-08-05T04:36:58.106Z,18.40
2022-08-05T04:39:27.569Z,18.50
2022-08-05T04:41:56.313Z,18.50
2022-08-05T04:44:29.435Z,18.50
2022-08-05T04:46:59.300Z,18.50
2022-08-05T04:49:39.028Z,18.40
2022-08-05T04:52:18.649Z,18.50
2022-08-05T04:54:47.430Z,18.50
2022-08-05T04:57:18.180Z,18.50
2022-08-05T04:59:48.020Z,18.50
2022-08-05T05:02:36.379Z,18.50
2022-08-05T05:05:16.681Z,18.40
2022-08-05T05:08:01.642Z,18.50
2022-08-05T05:10:33.363Z,18.40
2022-08-05T05:13:04.095Z,18.40
2022-08-05T05:15:57.177Z,18.50
2022-08-05T05:18:31.482Z,18.50
2022-08-05T05:21:04.031Z,18.50
2022-08-05T05:24:02.356Z,18.50
2022-08-05T05:26:28.583Z,18.60
2022-08-05T05:29:02.326Z,18.60
2022-08-05T05:34:02.029Z,18.70
2022-08-05T05:36:35.435Z,18.70
2022-08-05T05:39:09.487Z,18.80
2022-08-05T05:41:40.713Z,18.90
2022-08-05T05:44:36.870Z,18.90
2022-08-05T05:47:04.295Z,18.90
2022-08-05T05:49:41.486Z,18.80
2022-08-05T05:52:13.065Z,18.80
2022-08-05T05:55:01.252Z,18.80
2022-08-05T05:57:42.733Z,18.70
2022-08-05T06:00:20.233Z,18.70
2022-08-05T06:02:49.047Z,18.50
2022-08-05T06:05:20.436Z,18.40
2022-08-05T06:07:57.976Z,18.40
2022-08-05T06:10:36.670Z,18.30
2022-08-05T06:13:06.803Z,18.30
2022-08-05T06:16:28.741Z,18.30
2022-08-05T06:18:31.183Z,18.30
2022-08-05T06:21:00.769Z,18.30
2022-08-05T06:23:43.832Z,18.30
2022-08-05T06:26:21.508Z,18.30
2022-08-05T06:28:52.754Z,18.20
2022-08-05T06:31:21.888Z,18.20
2022-08-05T06:34:07.675Z,18.10
2022-08-05T06:36:57.802Z,18.10
2022-08-05T06:39:27.354Z,18.00
2022-08-05T06:41:59.289Z,17.90
2022-08-05T06:44:28.377Z,17.90
2022-08-05T06:46:57.281Z,17.90
2022-08-05T06:50:00.776Z,17.90
2022-08-05T06:52:37.409Z,18.00
2022-08-05T06:55:03.896Z,18.10
2022-08-05T06:57:57.520Z,18.10
2022-08-05T07:00:24.953Z,18.10
2022-08-05T07:02:54.837Z,18.10
2022-08-05T07:05:36.952Z,18.10
2022-08-05T07:08:10.964Z,18.10
2022-08-05T07:10:52.579Z,18.20
2022-08-05T07:13:58.515Z,18.10
2022-08-05T07:17:59.466Z,18.20
2022-08-05T07:22:28.249Z,18.10
2022-08-05T07:25:23.301Z,18.10
2022-08-05T07:27:58.346Z,18.20
2022-08-05T07:30:33.354Z,18.20
2022-08-05T07:33:05.378Z,18.20
2022-08-05T07:36:03.459Z,18.20
2022-08-05T07:38:33.677Z,18.20
2022-08-05T07:42:07.063Z,18.20
2022-08-05T07:43:56.550Z,18.30
2022-08-05T07:46:32.050Z,18.30
2022-08-05T07:49:06.162Z,18.30
2022-08-05T07:51:48.696Z,18.20
2022-08-05T07:54:31.130Z,18.10
2022-08-05T07:57:22.753Z,18.10
2022-08-05T07:59:51.944Z,18.00
2022-08-05T08:02:30.758Z,18.00
2022-08-05T08:05:00.585Z,18.00
2022-08-05T08:07:39.306Z,17.90
2022-08-05T08:10:20.526Z,17.80
2022-08-05T08:12:50.062Z,17.70
2022-08-05T08:16:33.773Z,17.70
2022-08-05T08:18:14.375Z,17.70
2022-08-05T08:21:02.364Z,17.70
2022-08-05T08:24:02.531Z,17.70
2022-08-05T08:26:26.894Z,17.80
2022-08-05T08:29:21.499Z,17.90
2022-08-05T08:31:49.722Z,18.00
2022-08-05T08:34:30.775Z,18.00
2022-08-05T08:37:02.261Z,18.00
2022-08-05T08:39:37.614Z,18.00
2022-08-05T08:42:22.467Z,18.10
2022-08-05T08:45:19.498Z,18.10
2022-08-05T08:48:07.558Z,18.10
2022-08-05T08:51:03.133Z,18.10
2022-08-05T08:53:36.980Z,18.00
2022-08-05T08:56:07.293Z,18.10
2022-08-05T08:58:43.839Z,18.20
2022-08-05T09:01:18.045Z,18.30
2022-08-05T09:03:49.014Z,18.40
2022-08-05T09:06:31.798Z,18.50
2022-08-05T09:09:02.174Z,18.70
2022-08-05T09:11:50.748Z,18.80
2022-08-05T09:14:58.978Z,18.80
2022-08-05T09:17:39.913Z,19.00
2022-08-05T09:20:05.458Z,19.10
2022-08-05T09:23:07.769Z,19.30
2022-08-05T09:26:01.630Z,19.30
2022-08-05T09:28:33.485Z,19.30
2022-08-05T09:31:23.330Z,19.30
2022-08-05T09:33:56.834Z,19.30
2022-08-05T09:36:27.898Z,19.40
2022-08-05T09:39:17.952Z,19.20
2022-08-05T09:41:58.590Z,19.20
2022-08-05T09:44:41.015Z,19.10
2022-08-05T09:47:15.677Z,19.30
2022-08-05T09:50:00.638Z,19.50
2022-08-05T09:52:33.739Z,19.80
2022-08-05T09:55:57.837Z,20.20
2022-08-05T09:57:58.713Z,20.60
2022-08-05T10:00:37.128Z,20.90
2022-08-05T10:03:15.965Z,20.80
2022-08-05T10:05:50.488Z,21.00
2022-08-05T10:08:35.856Z,21.50
2022-08-05T10:11:21.189Z,22.10
2022-08-05T10:13:54.650Z,22.50
2022-08-05T10:16:41.797Z,22.70
2022-08-05T10:20:02.708Z,22.90
2022-08-05T10:22:29.549Z,22.80
2022-08-05T10:24:59.470Z,22.40
2022-08-05T10:28:12.926Z,22.80
2022-08-05T10:32:50.500Z,23.10
2022-08-05T10:33:52.305Z,23.30
2022-08-05T10:36:26.067Z,23.50
2022-08-05T10:39:15.055Z,23.90
2022-08-05T10:42:05.071Z,24.40
2022-08-05T10:44:37.280Z,24.70
2022-08-05T10:47:26.248Z,25.00
2022-08-05T10:50:32.589Z,25.40
2022-08-05T10:53:05.293Z,24.90
2022-08-05T10:56:05.374Z,25.30
2022-08-05T10:58:52.223Z,25.40
2022-08-05T11:01:55.601Z,25.20
2022-08-05T11:04:23.159Z,25.10
2022-08-05T11:07:12.078Z,25.50
2022-08-05T11:09:47.422Z,25.60
2022-08-05T11:12:50.409Z,26.30
2022-08-05T11:16:01.362Z,27.00
2022-08-05T11:18:47.020Z,27.60
2022-08-05T11:21:48.942Z,28.10
2022-08-05T11:24:30.006Z,27.50
2022-08-05T11:27:37.005Z,26.80
2022-08-05T11:30:21.113Z,25.80
2022-08-05T11:33:44.198Z,25.30
2022-08-05T11:36:16.572Z,25.40
2022-08-05T11:39:09.903Z,24.90
2022-08-05T11:42:01.689Z,25.30
2022-08-05T11:44:54.067Z,25.50
2022-08-05T11:47:49.264Z,25.80
2022-08-05T11:50:15.476Z,26.50
2022-08-05T11:52:46.140Z,27.60
2022-08-05T11:55:20.100Z,28.10
2022-08-05T11:58:10.481Z,28.00
2022-08-05T12:00:44.153Z,27.20
2022-08-05T12:03:23.915Z,27.20
2022-08-05T12:06:10.016Z,27.70
2022-08-05T12:08:48.027Z,27.90
2022-08-05T12:11:22.018Z,28.30
2022-08-05T12:13:59.413Z,27.30
2022-08-05T12:16:38.355Z,26.70
2022-08-05T12:19:08.812Z,26.70
2022-08-05T12:21:47.431Z,28.00
2022-08-05T12:24:19.965Z,28.90
2022-08-05T12:26:51.565Z,28.30
2022-08-05T12:29:24.243Z,27.50
2022-08-05T12:32:02.286Z,27.70
2022-08-05T12:34:38.720Z,28.50
2022-08-05T12:37:17.061Z,28.70
2022-08-05T12:39:48.749Z,30.20
2022-08-05T12:42:25.115Z,31.20
2022-08-05T12:44:54.559Z,29.30
2022-08-05T12:47:31.140Z,28.50
2022-08-05T12:50:07.207Z,27.20
2022-08-05T12:52:42.507Z,26.30
2022-08-05T12:55:26.595Z,25.60
2022-08-05T12:58:39.058Z,24.70
2022-08-05T13:01:59.949Z,24.40
2022-08-05T13:03:43.373Z,24.40
2022-08-05T13:06:19.987Z,23.90
2022-08-05T13:08:52.660Z,23.60
2022-08-05T13:12:01.539Z,23.40
2022-08-05T13:14:25.005Z,23.10
2022-08-05T13:17:10.237Z,23.20
2022-08-05T13:19:51.878Z,23.10
2022-08-05T13:22:29.379Z,23.10
2022-08-05T13:25:05.092Z,23.20
2022-08-05T13:27:38.095Z,23.20
2022-08-05T13:30:36.801Z,23.20
2022-08-05T13:33:01.212Z,23.10
2022-08-05T13:35:47.637Z,23.00
2022-08-05T13:38:36.025Z,22.70
2022-08-05T13:41:07.518Z,22.70
2022-08-05T13:43:45.924Z,22.90
2022-08-05T13:46:37.931Z,23.00
2022-08-05T13:49:13.948Z,23.00
2022-08-05T13:51:46.526Z,23.00
2022-08-05T13:54:21.242Z,23.00
2022-08-05T13:56:56.103Z,23.30
2022-08-05T13:59:27.542Z,23.70
2022-08-05T14:02:00.945Z,23.80
2022-08-05T14:04:50.830Z,24.00
2022-08-05T14:07:55.573Z,24.20
2022-08-05T14:10:13.578Z,24.70
2022-08-05T14:12:49.100Z,25.40
2022-08-05T14:16:05.017Z,27.20
2022-08-05T14:18:15.232Z,27.80
2022-08-05T14:20:52.917Z,28.00
2022-08-05T14:23:25.873Z,28.00
2022-08-05T14:25:58.979Z,27.50
2022-08-05T14:28:30.679Z,29.10
2022-08-05T14:31:01.490Z,29.60
2022-08-05T14:33:32.462Z,29.90
2022-08-05T14:36:21.583Z,29.60
2022-08-05T14:38:53.614Z,29.90
2022-08-05T14:41:23.163Z,28.80
2022-08-05T14:44:01.958Z,27.60
2022-08-05T14:46:38.489Z,26.60
2022-08-05T14:49:08.412Z,25.70
2022-08-05T14:51:38.418Z,25.50
2022-08-05T14:54:27.800Z,24.70
2022-08-05T14:56:59.517Z,24.70
2022-08-05T14:59:35.860Z,26.00
2022-08-05T15:02:24.358Z,27.50
2022-08-05T15:04:53.265Z,29.30
2022-08-05T15:08:05.461Z,29.80
2022-08-05T15:10:11.441Z,29.90
2022-08-05T15:12:59.793Z,27.90
2022-08-05T15:15:54.227Z,26.00
2022-08-05T15:18:19.670Z,25.90
2022-08-05T15:20:48.537Z,25.80
2022-08-05T15:23:17.919Z,25.70
2022-08-05T15:25:52.633Z,26.40
2022-08-05T15:28:27.832Z,28.30
2022-08-05T15:30:58.541Z,30.70
2022-08-05T15:34:04.613Z,29.50
2022-08-05T15:36:24.660Z,28.00
2022-08-05T15:40:41.762Z,26.80
2022-08-05T15:41:58.299Z,26.50
2022-08-05T15:44:30.284Z,25.90
2022-08-05T15:47:04.000Z,25.20
2022-08-05T15:49:48.094Z,24.70
2022-08-05T15:52:53.820Z,24.20
2022-08-05T15:55:15.534Z,24.00
2022-08-05T15:57:49.119Z,23.90
2022-08-05T16:00:25.983Z,23.80
2022-08-05T16:03:03.299Z,23.90
2022-08-05T16:05:32.320Z,23.90
2022-08-05T16:08:01.550Z,24.10
2022-08-05T16:10:30.365Z,24.10
2022-08-05T16:13:00.002Z,24.30
2022-08-05T16:15:32.601Z,25.90
2022-08-05T16:18:09.130Z,27.40
2022-08-05T16:20:40.238Z,27.80
2022-08-05T16:23:09.357Z,26.70
2022-08-05T16:25:38.634Z,27.90
2022-08-05T16:28:09.782Z,28.30
2022-08-05T16:30:41.604Z,28.20
2022-08-05T16:33:12.376Z,26.80
2022-08-05T16:35:44.716Z,26.90
2022-08-05T16:38:25.136Z,26.90
2022-08-05T16:41:00.854Z,26.30
2022-08-05T16:43:31.800Z,25.90
2022-08-05T16:46:04.414Z,26.80
2022-08-05T16:48:39.941Z,27.40
2022-08-05T16:51:10.848Z,27.50
2022-08-05T16:54:03.334Z,27.80
2022-08-05T16:56:34.923Z,28.20
2022-08-05T16:59:08.427Z,28.10
2022-08-05T17:01:53.134Z,27.40
2022-08-05T17:04:27.349Z,27.50
2022-08-05T17:07:00.372Z,27.40
2022-08-05T17:09:30.389Z,27.50
2022-08-05T17:12:10.436Z,27.50
2022-08-05T17:14:40.453Z,27.90
2022-08-05T17:17:14.886Z,28.90
2022-08-05T17:19:46.537Z,29.00
2022-08-05T17:22:34.651Z,28.90
2022-08-05T17:25:09.612Z,27.90
2022-08-05T17:27:51.490Z,27.70
2022-08-05T17:30:28.783Z,27.60
2022-08-05T17:32:58.025Z,27.60
2022-08-05T17:35:32.655Z,27.70
2022-08-05T17:38:19.925Z,27.60
2022-08-05T17:40:48.653Z,27.70
2022-08-05T17:43:46.900Z,27.20
2022-08-05T17:46:10.245Z,26.40
2022-08-05T17:48:39.001Z,25.20
2022-08-05T17:51:09.509Z,24.30
2022-08-05T17:53:38.379Z,24.00
2022-08-05T17:56:09.785Z,23.60
2022-08-05T17:58:39.745Z,23.40
2022-08-05T18:01:09.866Z,23.10
2022-08-05T18:03:55.994Z,22.90
2022-08-05T18:06:31.218Z,22.90
2022-08-05T18:09:00.125Z,22.70
2022-08-05T18:11:33.763Z,22.50
2022-08-05T18:14:06.590Z,22.40
2022-08-05T18:16:51.280Z,22.00
2022-08-05T18:19:22.654Z,21.90
2022-08-05T18:22:08.673Z,21.80
2022-08-05T18:24:43.286Z,21.50
2022-08-05T18:27:12.319Z,21.40
2022-08-05T18:29:51.910Z,21.40
2022-08-05T18:32:28.239Z,21.30
2022-08-05T18:34:58.341Z,21.30
2022-08-05T18:37:34.522Z,21.20
2022-08-05T18:40:33.657Z,21.20
2022-08-05T18:42:59.764Z,21.00
2022-08-05T18:45:41.552Z,21.00
2022-08-05T18:48:17.426Z,20.90
2022-08-05T18:52:04.188Z,20.80
2022-08-05T18:54:08.844Z,20.70
2022-08-05T18:56:38.085Z,20.60
2022-08-05T18:59:43.862Z,20.40
2022-08-05T19:01:58.513Z,20.40
2022-08-05T19:04:29.543Z,20.30
2022-08-05T19:06:58.645Z,20.20
2022-08-05T19:09:29.110Z,20.10
2022-08-05T19:12:10.675Z,20.10
2022-08-05T19:15:00.513Z,20.00
2022-08-05T19:17:59.444Z,20.00
2022-08-05T19:20:18.312Z,19.80
2022-08-05T19:22:49.769Z,19.80
2022-08-05T19:25:29.541Z,19.70
2022-08-05T19:27:59.835Z,19.70
2022-08-05T19:30:28.979Z,19.60
2022-08-05T19:32:57.662Z,19.50
2022-08-05T19:35:28.052Z,19.50
2022-08-05T19:38:17.921Z,19.40
2022-08-05T19:40:56.940Z,19.30
2022-08-05T19:44:06.761Z,19.30
2022-08-05T19:46:16.761Z,19.20
2022-08-05T19:49:01.207Z,19.10
2022-08-05T19:52:06.062Z,19.10
2022-08-05T19:54:29.500Z,19.00
2022-08-05T19:57:02.672Z,18.80
2022-08-05T19:59:55.225Z,18.80
2022-08-05T20:02:31.339Z,18.80
2022-08-05T20:05:00.549Z,18.70
2022-08-05T20:07:45.833Z,18.60
2022-08-05T20:10:17.502Z,18.50
2022-08-05T20:12:50.135Z,18.40
2022-08-05T20:15:47.786Z,18.20
2022-08-05T20:18:10.505Z,18.20
2022-08-05T20:21:00.042Z,18.20
2022-08-05T20:23:40.006Z,18.20
2022-08-05T20:26:18.176Z,18.20
2022-08-05T20:28:51.108Z,18.20
2022-08-05T20:31:21.578Z,18.20
2022-08-05T20:34:02.708Z,18.10
2022-08-05T20:36:33.087Z,18.00
2022-08-05T20:39:02.174Z,18.00
2022-08-05T20:41:43.946Z,17.80
2022-08-05T20:44:29.921Z,17.80
2022-08-05T20:47:00.702Z,17.80
2022-08-05T20:49:29.701Z,17.70
2022-08-05T20:52:07.168Z,17.60
2022-08-05T20:54:42.930Z,17.80
2022-08-05T20:57:43.440Z,17.80
2022-08-05T21:00:35.118Z,17.80
2022-08-05T21:03:08.157Z,17.70
2022-08-05T21:05:53.889Z,17.70
2022-08-05T21:08:26.699Z,17.70
2022-08-05T21:10:58.567Z,17.60
2022-08-05T21:13:47.804Z,17.40
2022-08-05T21:16:17.588Z,17.40
2022-08-05T21:18:46.531Z,17.30
2022-08-05T21:21:16.358Z,17.30
2022-08-05T21:23:46.606Z,17.40
2022-08-05T21:26:15.336Z,17.40
2022-08-05T21:28:50.626Z,17.30
2022-08-05T21:31:21.162Z,17.30
2022-08-05T21:33:50.169Z,17.20
2022-08-05T21:36:29.938Z,17.10
2022-08-05T21:39:01.769Z,17.10
2022-08-05T21:41:34.343Z,17.00
2022-08-05T21:44:05.017Z,17.00
2022-08-05T21:46:35.561Z,16.90
2022-08-05T21:49:07.243Z,16.90
2022-08-05T21:52:15.743Z,16.80
2022-08-05T21:54:30.757Z,16.70
2022-08-05T22:00:03.312Z,16.60
2022-08-05T22:02:45.188Z,16.40
2022-08-05T22:05:14.845Z,16.10
2022-08-05T22:07:59.190Z,15.90
2022-08-05T22:10:31.187Z,15.80
2022-08-05T22:13:09.210Z,15.80
2022-08-05T22:16:00.445Z,15.70
2022-08-05T22:18:35.126Z,15.50
2022-08-05T22:21:11.214Z,15.50
2022-08-05T22:24:40.361Z,15.40
2022-08-05T22:27:24.505Z,15.20
2022-08-05T22:30:15.841Z,15.20
2022-08-05T22:32:46.310Z,15.10
2022-08-05T22:35:16.677Z,15.00
2022-08-05T22:37:58.659Z,15.00
2022-08-05T22:40:30.865Z,14.90
2022-08-05T22:43:02.849Z,15.00
2022-08-05T22:45:33.664Z,15.10
2022-08-05T22:48:07.783Z,15.00
2022-08-05T22:50:38.264Z,14.90
2022-08-05T22:53:16.794Z,14.70
2022-08-05T22:55:57.301Z,14.50
2022-08-05T22:58:28.587Z,14.30
2022-08-05T23:00:57.832Z,14.10
2022-08-05T23:03:59.007Z,14.00
2022-08-05T23:06:17.030Z,13.90
2022-08-05T23:08:50.435Z,13.70
2022-08-05T23:11:21.016Z,13.60
2022-08-05T23:18:00.551Z,13.40
2022-08-05T23:20:32.460Z,13.20
2022-08-05T23:23:05.943Z,13.30
2022-08-05T23:25:51.503Z,13.30
2022-08-05T23:28:27.761Z,13.20
2022-08-05T23:31:16.118Z,13.00
2022-08-05T23:34:04.446Z,13.00
2022-08-05T23:36:38.789Z,12.90
2022-08-05T23:39:17.150Z,12.80
2022-08-05T23:41:53.967Z,12.70
2022-08-05T23:44:31.164Z,12.50
2022-08-05T23:47:00.558Z,12.70
2022-08-05T23:49:35.829Z,12.60
2022-08-05T23:52:22.305Z,12.40
2022-08-05T23:54:56.413Z,12.40
2022-08-05T23:57:28.163Z,12.30
